createdAt,value
2022-08-22T00:01:31.138Z,42.39
2022-08-22T00:02:54.996Z,43.40
2022-08-22T00:02:57.375Z,43.22
2022-08-22T00:02:58.997Z,42.66
2022-08-22T00:04:05.117Z,42.38
2022-08-22T00:06:38.582Z,42.74
2022-08-22T00:09:20.214Z,42.71
2022-08-22T00:11:52.416Z,42.44
2022-08-22T00:14:23.418Z,42.43
2022-08-22T00:16:56.060Z,42.72
2022-08-22T00:19:27.320Z,42.91
2022-08-22T00:21:58.919Z,42.46
2022-08-22T00:24:30.891Z,42.36
2022-08-22T00:27:03.065Z,42.53
2022-08-22T00:29:34.738Z,42.84
2022-08-22T00:32:07.885Z,42.56
2022-08-22T00:34:41.599Z,42.26
2022-08-22T00:37:16.731Z,42.45
2022-08-22T00:39:51.289Z,42.69
2022-08-22T00:42:35.585Z,42.54
2022-08-22T00:45:24.659Z,42.06
2022-08-22T00:47:58.099Z,42.51
2022-08-22T00:50:39.426Z,42.64
2022-08-22T00:53:31.799Z,42.48
2022-08-22T00:56:12.226Z,41.83
2022-08-22T00:58:55.252Z,42.19
2022-08-22T01:01:27.695Z,42.37
2022-08-22T01:04:20.742Z,42.09
2022-08-22T01:06:58.938Z,41.91
2022-08-22T01:09:36.310Z,42.28
2022-08-22T01:12:17.156Z,42.34
2022-08-22T01:14:49.054Z,41.81
2022-08-22T01:17:30.498Z,41.72
2022-08-22T01:20:16.442Z,41.86
2022-08-22T01:23:06.368Z,42.39
2022-08-22T01:25:51.481Z,42.02
2022-08-22T01:28:45.188Z,41.90
2022-08-22T01:31:31.932Z,42.33
2022-08-22T01:34:21.172Z,42.17
2022-08-22T01:37:06.259Z,41.78
2022-08-22T01:39:41.805Z,42.04
2022-08-22T01:42:31.076Z,42.52
2022-08-22T01:45:18.986Z,42.01
2022-08-22T01:47:51.758Z,41.75
2022-08-22T01:50:24.607Z,42.12
2022-08-22T01:53:00.500Z,42.48
2022-08-22T01:55:32.958Z,42.04
2022-08-22T01:58:03.787Z,41.59
2022-08-22T02:00:34.507Z,41.73
2022-08-22T02:03:14.232Z,42.23
2022-08-22T02:05:51.252Z,41.96
2022-08-22T02:08:28.547Z,41.64
2022-08-22T02:11:01.388Z,41.76
2022-08-22T02:13:44.637Z,42.31
2022-08-22T02:16:15.748Z,42.04
2022-08-22T02:18:50.918Z,41.52
2022-08-22T02:21:22.796Z,41.79
2022-08-22T02:23:56.876Z,42.44
2022-08-22T02:26:28.198Z,42.00
2022-08-22T02:28:59.190Z,41.51
2022-08-22T02:31:36.662Z,41.70
2022-08-22T02:34:18.837Z,42.04
2022-08-22T02:36:49.454Z,41.70
2022-08-22T02:39:26.791Z,41.56
2022-08-22T02:41:58.898Z,41.84
2022-08-22T02:44:30.928Z,42.29
2022-08-22T02:47:05.247Z,42.12
2022-08-22T02:49:43.615Z,41.82
2022-08-22T02:52:15.097Z,42.06
2022-08-22T02:54:48.673Z,42.33
2022-08-22T02:57:20.528Z,42.19
2022-08-22T03:00:31.289Z,41.73
2022-08-22T03:03:05.475Z,41.93
2022-08-22T03:05:46.778Z,42.43
2022-08-22T03:08:27.049Z,41.74
2022-08-22T03:11:02.810Z,41.81
2022-08-22T03:13:38.003Z,42.18
2022-08-22T03:16:11.903Z,42.07
2022-08-22T03:18:44.574Z,42.12
2022-08-22T03:21:16.699Z,41.64
2022-08-22T03:23:47.705Z,41.84
2022-08-22T03:26:20.419Z,42.24
2022-08-22T03:28:58.940Z,42.00
2022-08-22T03:31:29.664Z,41.72
2022-08-22T03:34:18.845Z,42.00
2022-08-22T03:36:49.176Z,42.18
2022-08-22T03:39:19.772Z,42.06
2022-08-22T03:42:04.219Z,42.50
2022-08-22T03:44:42.176Z,43.33
2022-08-22T03:47:18.558Z,44.10
2022-08-22T03:49:59.847Z,44.46
2022-08-22T03:52:59.513Z,44.63
2022-08-22T03:55:36.397Z,44.86
2022-08-22T03:58:28.020Z,45.33
2022-08-22T04:01:14.698Z,45.83
2022-08-22T04:04:01.517Z,45.99
2022-08-22T04:06:48.318Z,46.18
2022-08-22T04:09:29.129Z,46.56
2022-08-22T04:12:13.462Z,47.00
2022-08-22T04:14:53.903Z,47.28
2022-08-22T04:17:32.350Z,47.17
2022-08-22T04:20:16.801Z,47.02
2022-08-22T04:23:00.688Z,47.45
2022-08-22T04:25:33.239Z,47.48
2022-08-22T04:28:04.468Z,47.56
2022-08-22T04:30:36.671Z,47.88
2022-08-22T04:33:08.096Z,47.63
2022-08-22T04:35:39.013Z,48.18
2022-08-22T04:38:09.333Z,47.93
2022-08-22T04:40:42.927Z,48.07
2022-08-22T04:43:15.912Z,48.22
2022-08-22T04:45:47.088Z,48.10
2022-08-22T04:48:21.990Z,48.42
2022-08-22T04:50:52.230Z,48.29
2022-08-22T04:53:27.272Z,48.91
2022-08-22T04:56:07.817Z,48.44
2022-08-22T04:58:56.638Z,48.76
2022-08-22T05:01:26.871Z,49.04
2022-08-22T05:03:59.060Z,49.25
2022-08-22T05:06:29.780Z,49.19
2022-08-22T05:09:01.046Z,49.73
2022-08-22T05:11:31.758Z,49.82
2022-08-22T05:14:07.805Z,49.62
2022-08-22T05:16:39.803Z,50.72
2022-08-22T05:19:16.042Z,50.79
2022-08-22T05:21:46.796Z,50.82
2022-08-22T05:24:20.965Z,50.79
2022-08-22T05:26:52.818Z,50.75
2022-08-22T05:29:23.972Z,51.41
2022-08-22T05:31:55.786Z,51.49
2022-08-22T05:34:25.089Z,51.18
2022-08-22T05:36:57.043Z,51.13
2022-08-22T05:39:27.966Z,51.51
2022-08-22T05:41:59.292Z,51.13
2022-08-22T05:44:29.532Z,50.97
2022-08-22T05:47:01.389Z,51.52
2022-08-22T05:49:34.505Z,51.50
2022-08-22T05:52:08.978Z,51.74
2022-08-22T05:54:45.080Z,51.89
2022-08-22T05:57:20.298Z,52.15
2022-08-22T05:59:51.211Z,52.10
2022-08-22T06:02:22.888Z,51.95
2022-08-22T06:04:54.885Z,52.17
2022-08-22T06:07:27.040Z,52.03
2022-08-22T06:10:04.375Z,52.26
2022-08-22T06:12:37.433Z,52.12
2022-08-22T06:15:12.015Z,52.11
2022-08-22T06:17:44.070Z,51.87
2022-08-22T06:20:17.504Z,52.12
2022-08-22T06:22:51.623Z,51.93
2022-08-22T06:25:23.042Z,51.99
2022-08-22T06:27:54.194Z,51.86
2022-08-22T06:30:22.825Z,51.96
2022-08-22T06:33:00.256Z,51.70
2022-08-22T06:35:51.755Z,51.63
2022-08-22T06:38:20.655Z,51.78
2022-08-22T06:40:49.570Z,51.59
2022-08-22T06:43:20.037Z,51.73
2022-08-22T06:45:48.794Z,51.83
2022-08-22T06:48:19.687Z,51.39
2022-08-22T06:50:51.483Z,51.80
2022-08-22T06:53:21.440Z,51.65
2022-08-22T06:55:50.733Z,51.73
2022-08-22T06:58:24.148Z,51.67
2022-08-22T07:01:11.955Z,51.59
2022-08-22T07:03:42.814Z,51.60
2022-08-22T07:06:14.698Z,51.67
2022-08-22T07:08:43.923Z,51.62
2022-08-22T07:11:15.892Z,51.54
2022-08-22T07:13:51.129Z,51.52
2022-08-22T07:16:26.522Z,51.46
2022-08-22T07:18:54.979Z,51.31
2022-08-22T07:21:27.946Z,51.43
2022-08-22T07:23:57.186Z,51.47
2022-08-22T07:26:30.619Z,51.35
2022-08-22T07:29:05.741Z,51.33
2022-08-22T07:31:39.098Z,51.30
2022-08-22T07:34:16.166Z,51.25
2022-08-22T07:36:47.383Z,51.35
2022-08-22T07:39:21.638Z,51.47
2022-08-22T07:42:00.855Z,51.35
2022-08-22T07:44:33.887Z,51.42
2022-08-22T07:47:05.045Z,51.45
2022-08-22T07:49:35.412Z,51.66
2022-08-22T07:52:08.196Z,51.98
2022-08-22T07:54:38.048Z,52.07
2022-08-22T07:57:08.027Z,52.03
2022-08-22T07:59:44.651Z,52.04
2022-08-22T08:02:14.873Z,52.09
2022-08-22T08:04:44.025Z,51.83
2022-08-22T08:07:15.063Z,51.84
2022-08-22T08:09:45.705Z,51.76
2022-08-22T08:12:15.864Z,51.73
2022-08-22T08:14:47.345Z,51.95
2022-08-22T08:17:19.072Z,51.85
2022-08-22T08:19:48.222Z,51.87
2022-08-22T08:22:17.846Z,51.54
2022-08-22T08:24:47.859Z,51.70
2022-08-22T08:27:36.751Z,51.92
2022-08-22T08:30:11.072Z,52.05
2022-08-22T08:32:43.036Z,51.69
2022-08-22T08:35:14.734Z,51.95
2022-08-22T08:37:46.249Z,51.88
2022-08-22T08:40:21.906Z,51.97
2022-08-22T08:43:33.856Z,51.74
2022-08-22T08:46:20.721Z,51.63
2022-08-22T08:49:00.995Z,52.07
2022-08-22T08:51:53.480Z,51.65
2022-08-22T08:54:51.868Z,51.59
2022-08-22T08:57:25.500Z,51.64
2022-08-22T09:00:01.725Z,51.72
2022-08-22T09:02:46.996Z,51.70
2022-08-22T09:05:24.634Z,51.57
2022-08-22T09:08:14.531Z,51.69
2022-08-22T09:10:59.022Z,51.57
2022-08-22T09:13:41.766Z,51.41
2022-08-22T09:16:29.783Z,51.62
2022-08-22T09:19:10.562Z,51.93
2022-08-22T09:21:59.666Z,51.45
2022-08-22T09:24:48.790Z,51.58
2022-08-22T09:27:21.718Z,51.61
2022-08-22T09:29:57.204Z,51.58
2022-08-22T09:32:35.236Z,51.44
2022-08-22T09:35:08.680Z,51.70
2022-08-22T09:37:42.820Z,51.73
2022-08-22T09:43:02.820Z,51.84
2022-08-22T09:45:37.926Z,51.51
2022-08-22T09:48:10.417Z,51.71
2022-08-22T09:50:54.525Z,51.57
2022-08-22T09:53:40.216Z,51.43
2022-08-22T09:56:15.015Z,51.26
2022-08-22T09:58:51.990Z,50.57
2022-08-22T10:01:26.512Z,50.14
2022-08-22T10:04:25.164Z,49.66
2022-08-22T10:06:59.584Z,49.38
2022-08-22T10:09:31.891Z,48.77
2022-08-22T10:12:02.956Z,48.80
2022-08-22T10:14:50.522Z,48.17
2022-08-22T10:17:22.159Z,48.00
2022-08-22T10:19:53.718Z,47.79
2022-08-22T10:22:29.844Z,47.28
2022-08-22T10:25:03.969Z,47.48
2022-08-22T10:27:40.010Z,47.05
2022-08-22T10:30:13.193Z,46.92
2022-08-22T10:32:44.901Z,46.74
2022-08-22T10:35:19.624Z,46.26
2022-08-22T10:37:52.375Z,45.55
2022-08-22T10:40:25.481Z,45.44
2022-08-22T10:42:55.422Z,45.19
2022-08-22T10:45:36.087Z,44.79
2022-08-22T10:48:29.621Z,44.52
2022-08-22T10:51:04.300Z,44.40
2022-08-22T10:53:53.173Z,44.20
2022-08-22T10:56:28.928Z,44.01
2022-08-22T10:59:04.538Z,43.86
2022-08-22T11:01:42.156Z,43.88
2022-08-22T11:04:14.099Z,43.55
2022-08-22T11:06:45.982Z,43.44
2022-08-22T11:09:24.068Z,43.21
2022-08-22T11:11:57.289Z,43.20
2022-08-22T11:14:52.708Z,43.63
2022-08-22T11:17:55.656Z,43.69
2022-08-22T11:20:27.686Z,44.61
2022-08-22T11:23:08.626Z,45.09
2022-08-22T11:25:52.381Z,45.44
2022-08-22T11:28:30.620Z,45.36
2022-08-22T11:31:07.214Z,46.09
2022-08-22T11:33:47.241Z,46.35
2022-08-22T11:36:30.910Z,46.72
2022-08-22T11:39:17.944Z,46.74
2022-08-22T11:41:52.333Z,47.17
2022-08-22T11:44:25.551Z,47.50
2022-08-22T11:46:57.319Z,47.62
2022-08-22T11:49:42.625Z,47.60
2022-08-22T11:52:14.351Z,47.54
2022-08-22T11:55:01.423Z,47.99
2022-08-22T11:57:34.275Z,48.28
2022-08-22T12:00:13.131Z,48.34
2022-08-22T12:02:48.881Z,48.42
2022-08-22T12:05:26.251Z,48.72
2022-08-22T12:07:58.034Z,48.64
2022-08-22T12:10:30.274Z,48.63
2022-08-22T12:13:02.070Z,48.98
2022-08-22T12:15:35.916Z,49.15
2022-08-22T12:18:23.015Z,49.13
2022-08-22T12:21:11.126Z,49.49
2022-08-22T12:23:51.051Z,49.32
2022-08-22T12:26:24.938Z,49.42
2022-08-22T12:29:03.062Z,49.47
2022-08-22T12:31:37.461Z,49.79
2022-08-22T12:34:12.377Z,49.57
2022-08-22T12:36:55.053Z,49.59
2022-08-22T12:39:37.368Z,49.18
2022-08-22T12:42:18.126Z,49.28
2022-08-22T12:44:53.224Z,48.68
2022-08-22T12:47:36.110Z,47.70
2022-08-22T12:50:13.646Z,47.64
2022-08-22T12:52:53.312Z,47.34
2022-08-22T12:55:37.085Z,46.95
2022-08-22T12:58:12.423Z,46.73
2022-08-22T13:00:45.214Z,45.97
2022-08-22T13:03:20.006Z,45.94
2022-08-22T13:05:52.372Z,45.34
2022-08-22T13:08:29.751Z,45.08
2022-08-22T13:11:02.502Z,44.67
2022-08-22T13:13:37.332Z,44.34
2022-08-22T13:16:08.835Z,44.00
2022-08-22T13:18:44.719Z,43.67
2022-08-22T13:21:16.304Z,43.43
2022-08-22T13:23:47.184Z,43.16
2022-08-22T13:26:32.934Z,42.76
2022-08-22T13:31:58.507Z,42.40
2022-08-22T13:34:34.853Z,42.35
2022-08-22T13:37:10.211Z,41.85
2022-08-22T13:39:40.339Z,41.71
2022-08-22T13:42:29.671Z,41.77
2022-08-22T13:45:02.500Z,41.79
2022-08-22T13:47:34.525Z,41.33
2022-08-22T13:50:08.828Z,41.21
2022-08-22T13:52:40.381Z,41.09
2022-08-22T13:55:13.709Z,40.71
2022-08-22T13:57:45.057Z,40.75
2022-08-22T14:00:38.924Z,40.54
2022-08-22T14:03:27.521Z,40.46
2022-08-22T14:05:58.960Z,40.10
2022-08-22T14:08:47.427Z,40.17
2022-08-22T14:11:21.758Z,40.26
2022-08-22T14:13:57.768Z,40.29
2022-08-22T14:16:27.955Z,40.62
2022-08-22T14:18:59.163Z,40.44
2022-08-22T14:21:40.659Z,40.14
2022-08-22T14:24:14.419Z,39.96
2022-08-22T14:26:50.751Z,40.04
2022-08-22T14:29:21.879Z,40.32
2022-08-22T14:31:58.011Z,40.93
2022-08-22T14:34:27.820Z,42.22
2022-08-22T14:37:00.333Z,42.76
2022-08-22T14:39:33.023Z,43.10
2022-08-22T14:42:10.042Z,43.40
2022-08-22T14:44:45.712Z,43.55
2022-08-22T14:47:54.221Z,43.33
2022-08-22T14:50:31.204Z,43.29
2022-08-22T14:53:04.963Z,43.29
2022-08-22T14:55:35.271Z,43.46
2022-08-22T14:58:06.400Z,42.97
2022-08-22T15:00:38.572Z,43.00
2022-08-22T15:03:12.089Z,43.62
2022-08-22T15:05:49.289Z,43.59
2022-08-22T15:08:24.178Z,43.81
2022-08-22T15:11:06.175Z,43.84
2022-08-22T15:13:37.906Z,43.94
2022-08-22T15:16:17.741Z,43.69
2022-08-22T15:18:51.767Z,43.63
2022-08-22T15:21:24.401Z,43.18
2022-08-22T15:23:54.742Z,43.38
2022-08-22T15:26:28.209Z,42.94
2022-08-22T15:28:58.408Z,43.11
2022-08-22T15:31:28.628Z,43.56
2022-08-22T15:34:07.137Z,43.60
2022-08-22T15:36:43.773Z,43.59
2022-08-22T15:39:32.922Z,43.58
2022-08-22T15:42:03.326Z,43.62
2022-08-22T15:44:34.119Z,43.79
2022-08-22T15:47:05.816Z,43.78
2022-08-22T15:49:48.737Z,43.80
2022-08-22T15:52:24.424Z,43.96
2022-08-22T15:55:12.982Z,43.95
2022-08-22T15:57:48.808Z,44.06
2022-08-22T16:00:28.262Z,43.89
2022-08-22T16:03:01.616Z,43.86
2022-08-22T16:05:41.433Z,43.73
2022-08-22T16:08:11.503Z,43.96
2022-08-22T16:10:42.595Z,44.15
2022-08-22T16:13:13.240Z,43.96
2022-08-22T16:15:57.098Z,43.91
2022-08-22T16:18:44.088Z,44.02
2022-08-22T16:21:14.271Z,44.03
2022-08-22T16:24:01.160Z,44.09
2022-08-22T16:26:39.042Z,44.15
2022-08-22T16:29:08.865Z,44.27
2022-08-22T16:31:38.863Z,44.01
2022-08-22T16:34:24.518Z,44.21
2022-08-22T16:37:18.140Z,44.19
2022-08-22T16:39:48.229Z,44.11
2022-08-22T16:42:25.437Z,44.34
2022-08-22T16:44:57.098Z,44.21
2022-08-22T16:47:40.757Z,44.23
2022-08-22T16:50:11.621Z,44.19
2022-08-22T16:53:02.700Z,43.17
2022-08-22T16:55:55.493Z,43.38
2022-08-22T16:58:56.637Z,42.77
2022-08-22T17:01:32.219Z,43.49
2022-08-22T17:04:06.835Z,43.33
2022-08-22T17:06:47.654Z,43.54
2022-08-22T17:09:25.604Z,43.67
2022-08-22T17:11:59.861Z,43.67
2022-08-22T17:14:36.174Z,43.84
2022-08-22T17:17:14.569Z,43.66
2022-08-22T17:19:51.913Z,43.89
2022-08-22T17:22:29.007Z,44.13
2022-08-22T17:25:04.572Z,44.26
2022-08-22T17:27:38.769Z,44.50
2022-08-22T17:30:10.124Z,44.74
2022-08-22T17:32:51.379Z,45.19
2022-08-22T17:35:34.808Z,45.16
2022-08-22T17:38:07.863Z,45.29
2022-08-22T17:40:42.639Z,45.39
2022-08-22T17:43:33.498Z,45.55
2022-08-22T17:46:26.332Z,45.95
2022-08-22T17:48:57.271Z,45.89
2022-08-22T17:51:28.886Z,45.90
2022-08-22T17:54:00.918Z,46.18
2022-08-22T17:56:34.166Z,46.51
2022-08-22T17:59:06.075Z,46.46
2022-08-22T18:01:40.549Z,46.62
2022-08-22T18:04:13.532Z,46.68
2022-08-22T18:06:47.601Z,46.94
2022-08-22T18:09:23.068Z,47.25
2022-08-22T18:11:53.536Z,47.52
2022-08-22T18:14:27.058Z,47.38
2022-08-22T18:16:56.171Z,47.36
2022-08-22T18:19:37.729Z,47.48
2022-08-22T18:22:08.890Z,47.51
2022-08-22T18:24:42.106Z,47.36
2022-08-22T18:27:32.594Z,47.55
2022-08-22T18:30:19.737Z,47.79
2022-08-22T18:32:52.742Z,47.82
2022-08-22T18:35:24.868Z,48.32
2022-08-22T18:37:57.307Z,48.62
2022-08-22T18:40:32.457Z,48.32
2022-08-22T18:43:08.709Z,48.16
2022-08-22T18:45:52.015Z,48.29
2022-08-22T18:48:22.962Z,48.27
2022-08-22T18:50:51.701Z,48.38
2022-08-22T18:53:34.980Z,48.32
2022-08-22T18:56:07.940Z,48.31
2022-08-22T18:58:43.346Z,48.38
2022-08-22T19:01:22.703Z,49.32
2022-08-22T19:04:10.764Z,49.15
2022-08-22T19:06:48.882Z,48.96
2022-08-22T19:09:32.333Z,49.12
2022-08-22T19:12:04.492Z,49.24
2022-08-22T19:14:49.689Z,49.55
2022-08-22T19:17:33.595Z,49.54
2022-08-22T19:20:25.073Z,49.65
2022-08-22T19:22:55.028Z,49.65
2022-08-22T19:25:27.192Z,49.65
2022-08-22T19:28:14.420Z,49.79
2022-08-22T19:30:44.489Z,50.31
2022-08-22T19:33:13.468Z,50.23
2022-08-22T19:36:04.455Z,49.98
2022-08-22T19:38:52.937Z,50.01
2022-08-22T19:41:45.017Z,49.94
2022-08-22T19:44:31.853Z,49.89
2022-08-22T19:47:03.595Z,50.08
2022-08-22T19:49:33.981Z,50.01
2022-08-22T19:52:11.926Z,50.07
2022-08-22T19:54:46.202Z,50.27
2022-08-22T19:57:17.319Z,50.38
2022-08-22T19:59:50.969Z,50.27
2022-08-22T20:02:32.253Z,50.11
2022-08-22T20:05:20.475Z,50.45
2022-08-22T20:07:59.060Z,50.50
2022-08-22T20:10:30.772Z,50.53
2022-08-22T20:13:04.652Z,50.44
2022-08-22T20:15:34.330Z,50.60
2022-08-22T20:20:59.873Z,50.34
2022-08-22T20:23:30.989Z,50.60
2022-08-22T20:26:00.033Z,50.82
2022-08-22T20:28:34.441Z,50.85
2022-08-22T20:31:04.448Z,50.69
2022-08-22T20:33:33.916Z,50.53
2022-08-22T20:36:04.409Z,50.78
2022-08-22T20:38:38.217Z,50.75
2022-08-22T20:41:13.507Z,50.74
2022-08-22T20:43:46.392Z,51.17
2022-08-22T20:46:27.607Z,51.15
2022-08-22T20:48:57.288Z,51.15
2022-08-22T20:51:26.913Z,51.10
2022-08-22T20:53:57.702Z,51.42
2022-08-22T20:56:36.877Z,51.21
2022-08-22T20:59:19.041Z,51.33
2022-08-22T21:01:48.665Z,51.64
2022-08-22T21:04:21.017Z,51.34
2022-08-22T21:06:58.972Z,51.63
2022-08-22T21:09:46.551Z,51.39
2022-08-22T21:12:14.933Z,51.54
2022-08-22T21:14:46.381Z,51.49
2022-08-22T21:17:19.245Z,51.74
2022-08-22T21:19:47.704Z,51.52
2022-08-22T21:22:16.507Z,51.62
2022-08-22T21:24:47.204Z,51.54
2022-08-22T21:27:22.535Z,51.46
2022-08-22T21:29:50.757Z,51.63
2022-08-22T21:32:25.820Z,51.78
2022-08-22T21:34:54.399Z,52.04
2022-08-22T21:37:27.501Z,51.96
2022-08-22T21:40:00.412Z,52.28
2022-08-22T21:42:32.666Z,52.52
2022-08-22T21:45:02.874Z,52.54
2022-08-22T21:47:32.708Z,52.42
2022-08-22T21:50:03.066Z,52.63
2022-08-22T21:52:32.128Z,52.93
2022-08-22T21:55:15.993Z,52.77
2022-08-22T21:57:44.388Z,53.01
2022-08-22T22:00:39.066Z,53.03
2022-08-22T22:03:09.360Z,52.91
2022-08-22T22:05:39.256Z,53.15
2022-08-22T22:08:08.151Z,53.26
2022-08-22T22:10:38.229Z,53.45
2022-08-22T22:13:06.541Z,53.45
2022-08-22T22:15:36.945Z,53.70
2022-08-22T22:18:05.750Z,53.65
2022-08-22T22:20:34.404Z,53.68
2022-08-22T22:23:02.890Z,54.06
2022-08-22T22:25:39.855Z,53.93
2022-08-22T22:28:14.106Z,54.03
2022-08-22T22:30:43.046Z,54.17
2022-08-22T22:33:11.885Z,54.37
2022-08-22T22:35:41.510Z,54.09
2022-08-22T22:38:09.925Z,54.38
2022-08-22T22:40:38.473Z,54.41
2022-08-22T22:43:06.743Z,54.33
2022-08-22T22:45:36.416Z,54.23
2022-08-22T22:48:05.336Z,54.45
2022-08-22T22:50:33.744Z,54.51
2022-08-22T22:53:02.047Z,54.52
2022-08-22T22:55:30.310Z,54.54
2022-08-22T22:57:59.813Z,54.55
2022-08-22T23:00:30.865Z,54.67
2022-08-22T23:03:01.828Z,54.65
2022-08-22T23:05:30.671Z,54.45
2022-08-22T23:07:59.354Z,54.43
2022-08-22T23:10:28.752Z,54.48
2022-08-22T23:12:57.039Z,54.51
2022-08-22T23:15:25.356Z,54.32
2022-08-22T23:17:53.674Z,54.44
2022-08-22T23:20:23.318Z,54.64
2022-08-22T23:22:51.538Z,54.39
2022-08-22T23:25:20.000Z,54.35
2022-08-22T23:27:48.524Z,54.46
2022-08-22T23:30:21.024Z,54.38
2022-08-22T23:32:49.396Z,54.41
2022-08-22T23:35:17.732Z,54.44
2022-08-22T23:37:47.386Z,54.28
2022-08-22T23:40:15.705Z,54.48
2022-08-22T23:42:44.004Z,54.34
2022-08-22T23:45:12.321Z,54.48
2022-08-22T23:47:40.646Z,54.25
2022-08-22T23:50:09.135Z,54.44
2022-08-22T23:52:37.342Z,54.46
2022-08-22T23:55:07.701Z,54.09
2022-08-22T23:57:36.193Z,54.35
